sensor_id;sensor_type;location;lat;lon;timestamp;P1;durP1;ratioP1;P2;durP2;ratioP2
50337;SDS011;46221;51.178;5.900;2023-04-03T00:01:52;4.22;;;1.92;;
50337;SDS011;46221;51.178;5.900;2023-04-03T00:04:19;3.75;;;1.85;;
50337;SDS011;46221;51.178;5.900;2023-04-03T00:06:45;2.60;;;1.70;;
50337;SDS011;46221;51.178;5.900;2023-04-03T00:09:12;4.82;;;2.10;;
50337;SDS011;46221;51.178;5.900;2023-04-03T00:11:38;4.97;;;2.03;;
50337;SDS011;46221;51.178;5.900;2023-04-03T00:14:04;4.20;;;1.88;;
50337;SDS011;46221;51.178;5.900;2023-04-03T00:16:31;2.97;;;1.60;;
50337;SDS011;46221;51.178;5.900;2023-04-03T00:18:57;3.67;;;2.08;;
50337;SDS011;46221;51.178;5.900;2023-04-03T00:21:23;3.63;;;2.20;;
50337;SDS011;46221;51.178;5.900;2023-04-03T00:23:50;4.10;;;1.95;;
50337;SDS011;46221;51.178;5.900;2023-04-03T00:26:16;2.92;;;1.80;;
50337;SDS011;46221;51.178;5.900;2023-04-03T00:28:42;2.72;;;1.80;;
50337;SDS011;46221;51.178;5.900;2023-04-03T00:31:08;3.25;;;2.22;;
50337;SDS011;46221;51.178;5.900;2023-04-03T00:33:35;5.80;;;2.50;;
50337;SDS011;46221;51.178;5.900;2023-04-03T00:36:05;3.25;;;2.10;;
50337;SDS011;46221;51.178;5.900;2023-04-03T00:38:32;3.28;;;2.00;;
50337;SDS011;46221;51.178;5.900;2023-04-03T00:40:58;3.83;;;2.00;;
50337;SDS011;46221;51.178;5.900;2023-04-03T00:43:25;3.75;;;2.28;;
50337;SDS011;46221;51.178;5.900;2023-04-03T00:45:54;3.42;;;2.08;;
50337;SDS011;46221;51.178;5.900;2023-04-03T00:48:23;4.97;;;2.70;;
50337;SDS011;46221;51.178;5.900;2023-04-03T00:50:50;5.80;;;2.20;;
50337;SDS011;46221;51.178;5.900;2023-04-03T00:53:19;3.63;;;2.00;;
50337;SDS011;46221;51.178;5.900;2023-04-03T00:55:48;4.43;;;2.30;;
50337;SDS011;46221;51.178;5.900;2023-04-03T00:58:15;6.32;;;2.45;;
50337;SDS011;46221;51.178;5.900;2023-04-03T01:00:44;5.55;;;2.70;;
50337;SDS011;46221;51.178;5.900;2023-04-03T01:03:12;4.20;;;2.08;;
50337;SDS011;46221;51.178;5.900;2023-04-03T01:05:39;4.38;;;2.03;;
50337;SDS011;46221;51.178;5.900;2023-04-03T01:08:06;3.15;;;1.83;;
50337;SDS011;46221;51.178;5.900;2023-04-03T01:10:32;4.43;;;2.17;;
50337;SDS011;46221;51.178;5.900;2023-04-03T01:12:58;4.18;;;2.35;;
50337;SDS011;46221;51.178;5.900;2023-04-03T01:15:26;3.40;;;2.13;;
50337;SDS011;46221;51.178;5.900;2023-04-03T01:17:56;4.70;;;2.20;;
50337;SDS011;46221;51.178;5.900;2023-04-03T01:25:45;4.07;;;2.15;;
50337;SDS011;46221;51.178;5.900;2023-04-03T01:28:22;3.88;;;2.33;;
50337;SDS011;46221;51.178;5.900;2023-04-03T01:33:35;4.13;;;2.75;;
50337;SDS011;46221;51.178;5.900;2023-04-03T01:36:02;3.90;;;2.25;;
50337;SDS011;46221;51.178;5.900;2023-04-03T01:38:29;5.10;;;2.50;;
50337;SDS011;46221;51.178;5.900;2023-04-03T01:40:55;5.18;;;2.20;;
50337;SDS011;46221;51.178;5.900;2023-04-03T01:43:21;4.38;;;1.88;;
50337;SDS011;46221;51.178;5.900;2023-04-03T01:45:48;3.28;;;2.03;;
50337;SDS011;46221;51.178;5.900;2023-04-03T01:48:16;4.65;;;2.40;;
50337;SDS011;46221;51.178;5.900;2023-04-03T01:50:42;3.80;;;2.00;;
50337;SDS011;46221;51.178;5.900;2023-04-03T01:53:10;3.00;;;1.73;;
50337;SDS011;46221;51.178;5.900;2023-04-03T01:55:36;3.33;;;2.13;;
50337;SDS011;46221;51.178;5.900;2023-04-03T01:58:02;3.33;;;2.10;;
50337;SDS011;46221;51.178;5.900;2023-04-03T02:00:29;4.57;;;2.03;;
50337;SDS011;46221;51.178;5.900;2023-04-03T02:02:55;4.55;;;2.03;;
50337;SDS011;46221;51.178;5.900;2023-04-03T02:05:22;5.25;;;2.38;;
50337;SDS011;46221;51.178;5.900;2023-04-03T02:07:49;3.63;;;1.95;;
50337;SDS011;46221;51.178;5.900;2023-04-03T02:10:15;4.25;;;2.40;;
50337;SDS011;46221;51.178;5.900;2023-04-03T02:12:42;3.70;;;2.38;;
50337;SDS011;46221;51.178;5.900;2023-04-03T02:15:08;3.47;;;2.35;;
50337;SDS011;46221;51.178;5.900;2023-04-03T02:17:35;4.80;;;2.00;;
50337;SDS011;46221;51.178;5.900;2023-04-03T02:20:02;3.40;;;1.73;;
50337;SDS011;46221;51.178;5.900;2023-04-03T02:22:29;3.63;;;2.33;;
50337;SDS011;46221;51.178;5.900;2023-04-03T02:24:55;4.45;;;2.00;;
50337;SDS011;46221;51.178;5.900;2023-04-03T02:27:22;3.50;;;2.05;;
50337;SDS011;46221;51.178;5.900;2023-04-03T02:29:48;3.13;;;1.80;;
50337;SDS011;46221;51.178;5.900;2023-04-03T02:32:14;4.13;;;2.33;;
50337;SDS011;46221;51.178;5.900;2023-04-03T02:34:41;4.72;;;2.33;;
50337;SDS011;46221;51.178;5.900;2023-04-03T02:37:07;3.45;;;2.22;;
50337;SDS011;46221;51.178;5.900;2023-04-03T02:39:34;4.28;;;2.05;;
50337;SDS011;46221;51.178;5.900;2023-04-03T02:42:00;4.00;;;2.28;;
50337;SDS011;46221;51.178;5.900;2023-04-03T02:44:27;3.53;;;2.20;;
50337;SDS011;46221;51.178;5.900;2023-04-03T02:46:53;3.83;;;2.05;;
50337;SDS011;46221;51.178;5.900;2023-04-03T02:49:19;3.80;;;2.17;;
50337;SDS011;46221;51.178;5.900;2023-04-03T02:51:46;3.45;;;2.10;;
50337;SDS011;46221;51.178;5.900;2023-04-03T02:54:13;5.32;;;2.10;;
50337;SDS011;46221;51.178;5.900;2023-04-03T02:56:39;4.38;;;2.65;;
50337;SDS011;46221;51.178;5.900;2023-04-03T02:59:06;3.67;;;2.28;;
50337;SDS011;46221;51.178;5.900;2023-04-03T03:01:32;3.08;;;1.98;;
50337;SDS011;46221;51.178;5.900;2023-04-03T03:03:59;3.92;;;2.08;;
50337;SDS011;46221;51.178;5.900;2023-04-03T03:06:26;4.50;;;2.30;;
50337;SDS011;46221;51.178;5.900;2023-04-03T03:08:52;3.75;;;2.20;;
50337;SDS011;46221;51.178;5.900;2023-04-03T03:11:19;2.65;;;2.13;;
50337;SDS011;46221;51.178;5.900;2023-04-03T03:13:46;3.92;;;2.20;;
50337;SDS011;46221;51.178;5.900;2023-04-03T03:16:12;4.30;;;2.20;;
50337;SDS011;46221;51.178;5.900;2023-04-03T03:18:38;3.83;;;2.40;;
50337;SDS011;46221;51.178;5.900;2023-04-03T03:21:05;3.90;;;1.95;;
50337;SDS011;46221;51.178;5.900;2023-04-03T03:23:32;3.05;;;1.92;;
50337;SDS011;46221;51.178;5.900;2023-04-03T03:25:59;4.25;;;2.28;;
50337;SDS011;46221;51.178;5.900;2023-04-03T03:28:26;3.30;;;1.98;;
50337;SDS011;46221;51.178;5.900;2023-04-03T03:30:52;5.25;;;2.88;;
50337;SDS011;46221;51.178;5.900;2023-04-03T03:33:19;4.07;;;2.17;;
50337;SDS011;46221;51.178;5.900;2023-04-03T03:35:45;3.30;;;2.20;;
50337;SDS011;46221;51.178;5.900;2023-04-03T03:38:12;5.43;;;2.00;;
50337;SDS011;46221;51.178;5.900;2023-04-03T03:40:38;4.10;;;2.30;;
50337;SDS011;46221;51.178;5.900;2023-04-03T03:43:04;3.25;;;1.83;;
50337;SDS011;46221;51.178;5.900;2023-04-03T03:45:31;3.95;;;1.90;;
50337;SDS011;46221;51.178;5.900;2023-04-03T03:47:57;3.63;;;1.98;;
50337;SDS011;46221;51.178;5.900;2023-04-03T03:50:24;3.20;;;1.88;;
50337;SDS011;46221;51.178;5.900;2023-04-03T03:52:50;3.85;;;1.92;;
50337;SDS011;46221;51.178;5.900;2023-04-03T03:55:17;4.70;;;2.22;;
50337;SDS011;46221;51.178;5.900;2023-04-03T03:57:43;4.43;;;3.22;;
50337;SDS011;46221;51.178;5.900;2023-04-03T04:00:10;5.00;;;2.17;;
50337;SDS011;46221;51.178;5.900;2023-04-03T04:02:36;3.67;;;2.00;;
50337;SDS011;46221;51.178;5.900;2023-04-03T04:05:03;3.70;;;2.05;;
50337;SDS011;46221;51.178;5.900;2023-04-03T04:07:29;3.60;;;2.22;;
50337;SDS011;46221;51.178;5.900;2023-04-03T04:09:56;4.68;;;2.00;;
50337;SDS011;46221;51.178;5.900;2023-04-03T04:12:22;2.72;;;1.80;;
50337;SDS011;46221;51.178;5.900;2023-04-03T04:14:48;3.88;;;1.98;;
50337;SDS011;46221;51.178;5.900;2023-04-03T04:17:15;3.70;;;2.30;;
50337;SDS011;46221;51.178;5.900;2023-04-03T04:19:41;3.70;;;2.15;;
50337;SDS011;46221;51.178;5.900;2023-04-03T04:22:08;3.42;;;2.10;;
50337;SDS011;46221;51.178;5.900;2023-04-03T04:24:34;4.18;;;2.08;;
50337;SDS011;46221;51.178;5.900;2023-04-03T04:27:03;3.70;;;2.00;;
50337;SDS011;46221;51.178;5.900;2023-04-03T04:29:29;3.72;;;1.90;;
50337;SDS011;46221;51.178;5.900;2023-04-03T04:32:01;5.72;;;2.33;;
50337;SDS011;46221;51.178;5.900;2023-04-03T04:34:28;3.75;;;2.10;;
50337;SDS011;46221;51.178;5.900;2023-04-03T04:36:55;3.40;;;1.90;;
50337;SDS011;46221;51.178;5.900;2023-04-03T04:39:22;3.22;;;2.05;;
50337;SDS011;46221;51.178;5.900;2023-04-03T04:41:48;3.88;;;2.22;;
50337;SDS011;46221;51.178;5.900;2023-04-03T04:44:15;4.18;;;2.05;;
50337;SDS011;46221;51.178;5.900;2023-04-03T04:46:41;4.35;;;2.25;;
50337;SDS011;46221;51.178;5.900;2023-04-03T04:49:07;4.10;;;2.45;;
50337;SDS011;46221;51.178;5.900;2023-04-03T04:51:34;4.43;;;2.13;;
50337;SDS011;46221;51.178;5.900;2023-04-03T04:54:16;3.33;;;1.98;;
50337;SDS011;46221;51.178;5.900;2023-04-03T04:56:43;3.05;;;1.98;;
50337;SDS011;46221;51.178;5.900;2023-04-03T04:59:09;4.97;;;2.20;;
50337;SDS011;46221;51.178;5.900;2023-04-03T05:01:35;3.38;;;1.70;;
50337;SDS011;46221;51.178;5.900;2023-04-03T05:04:02;3.15;;;2.00;;
50337;SDS011;46221;51.178;5.900;2023-04-03T05:06:28;3.10;;;1.85;;
50337;SDS011;46221;51.178;5.900;2023-04-03T05:08:56;6.95;;;2.45;;
50337;SDS011;46221;51.178;5.900;2023-04-03T05:11:22;4.30;;;1.95;;
50337;SDS011;46221;51.178;5.900;2023-04-03T05:13:50;3.42;;;1.60;;
50337;SDS011;46221;51.178;5.900;2023-04-03T05:16:16;3.20;;;1.75;;
50337;SDS011;46221;51.178;5.900;2023-04-03T05:18:43;4.53;;;2.00;;
50337;SDS011;46221;51.178;5.900;2023-04-03T05:21:09;4.10;;;1.85;;
50337;SDS011;46221;51.178;5.900;2023-04-03T05:23:35;3.55;;;1.90;;
50337;SDS011;46221;51.178;5.900;2023-04-03T05:26:02;3.03;;;1.55;;
50337;SDS011;46221;51.178;5.900;2023-04-03T05:28:28;5.22;;;1.98;;
50337;SDS011;46221;51.178;5.900;2023-04-03T05:30:55;4.03;;;1.80;;
50337;SDS011;46221;51.178;5.900;2023-04-03T05:33:23;3.95;;;1.67;;
50337;SDS011;46221;51.178;5.900;2023-04-03T05:35:49;4.00;;;1.70;;
50337;SDS011;46221;51.178;5.900;2023-04-03T05:38:15;3.83;;;1.75;;
50337;SDS011;46221;51.178;5.900;2023-04-03T05:40:42;3.80;;;1.90;;
50337;SDS011;46221;51.178;5.900;2023-04-03T05:43:09;4.03;;;1.92;;
50337;SDS011;46221;51.178;5.900;2023-04-03T05:45:35;5.10;;;1.60;;
50337;SDS011;46221;51.178;5.900;2023-04-03T05:48:02;4.47;;;1.77;;
50337;SDS011;46221;51.178;5.900;2023-04-03T05:50:28;3.33;;;1.85;;
50337;SDS011;46221;51.178;5.900;2023-04-03T05:52:55;3.33;;;1.77;;
50337;SDS011;46221;51.178;5.900;2023-04-03T05:55:22;4.05;;;1.60;;
50337;SDS011;46221;51.178;5.900;2023-04-03T05:57:48;3.13;;;1.48;;
50337;SDS011;46221;51.178;5.900;2023-04-03T06:00:16;4.68;;;1.60;;
50337;SDS011;46221;51.178;5.900;2023-04-03T06:02:42;4.63;;;2.05;;
50337;SDS011;46221;51.178;5.900;2023-04-03T06:05:09;2.75;;;1.77;;
50337;SDS011;46221;51.178;5.900;2023-04-03T06:07:37;4.03;;;1.90;;
50337;SDS011;46221;51.178;5.900;2023-04-03T06:10:04;4.93;;;1.92;;
50337;SDS011;46221;51.178;5.900;2023-04-03T06:12:30;4.80;;;1.80;;
50337;SDS011;46221;51.178;5.900;2023-04-03T06:14:57;3.30;;;1.42;;
50337;SDS011;46221;51.178;5.900;2023-04-03T06:17:24;3.92;;;1.60;;
50337;SDS011;46221;51.178;5.900;2023-04-03T06:19:50;4.07;;;1.50;;
50337;SDS011;46221;51.178;5.900;2023-04-03T06:22:17;5.50;;;1.48;;
50337;SDS011;46221;51.178;5.900;2023-04-03T06:24:43;4.93;;;1.80;;
50337;SDS011;46221;51.178;5.900;2023-04-03T06:27:10;4.63;;;1.60;;
50337;SDS011;46221;51.178;5.900;2023-04-03T06:29:37;5.95;;;1.77;;
50337;SDS011;46221;51.178;5.900;2023-04-03T06:32:03;3.60;;;1.45;;
50337;SDS011;46221;51.178;5.900;2023-04-03T06:34:30;4.10;;;1.58;;
50337;SDS011;46221;51.178;5.900;2023-04-03T06:36:57;4.30;;;1.48;;
50337;SDS011;46221;51.178;5.900;2023-04-03T06:39:24;3.85;;;1.85;;
50337;SDS011;46221;51.178;5.900;2023-04-03T06:41:50;5.25;;;1.40;;
50337;SDS011;46221;51.178;5.900;2023-04-03T06:44:17;4.63;;;1.70;;
50337;SDS011;46221;51.178;5.900;2023-04-03T06:46:44;4.70;;;1.75;;
50337;SDS011;46221;51.178;5.900;2023-04-03T06:49:11;3.35;;;1.90;;
50337;SDS011;46221;51.178;5.900;2023-04-03T06:51:38;2.95;;;1.35;;
50337;SDS011;46221;51.178;5.900;2023-04-03T06:54:05;3.67;;;1.58;;
50337;SDS011;46221;51.178;5.900;2023-04-03T06:56:32;5.13;;;2.15;;
50337;SDS011;46221;51.178;5.900;2023-04-03T06:58:58;5.22;;;1.70;;
50337;SDS011;46221;51.178;5.900;2023-04-03T07:01:25;5.53;;;1.50;;
50337;SDS011;46221;51.178;5.900;2023-04-03T07:03:54;3.65;;;1.63;;
50337;SDS011;46221;51.178;5.900;2023-04-03T07:06:20;4.20;;;1.67;;
50337;SDS011;46221;51.178;5.900;2023-04-03T07:08:47;5.35;;;1.60;;
50337;SDS011;46221;51.178;5.900;2023-04-03T07:11:17;3.20;;;1.55;;
50337;SDS011;46221;51.178;5.900;2023-04-03T07:13:43;4.10;;;1.70;;
50337;SDS011;46221;51.178;5.900;2023-04-03T07:16:10;5.18;;;1.83;;
50337;SDS011;46221;51.178;5.900;2023-04-03T07:18:37;4.72;;;1.50;;
50337;SDS011;46221;51.178;5.900;2023-04-03T07:21:03;3.90;;;1.52;;
50337;SDS011;46221;51.178;5.900;2023-04-03T07:23:30;4.97;;;1.85;;
50337;SDS011;46221;51.178;5.900;2023-04-03T07:25:57;3.10;;;1.42;;
50337;SDS011;46221;51.178;5.900;2023-04-03T07:28:23;4.60;;;1.70;;
50337;SDS011;46221;51.178;5.900;2023-04-03T07:30:54;3.80;;;1.63;;
50337;SDS011;46221;51.178;5.900;2023-04-03T07:33:25;5.10;;;1.63;;
50337;SDS011;46221;51.178;5.900;2023-04-03T07:35:52;4.22;;;1.40;;
50337;SDS011;46221;51.178;5.900;2023-04-03T07:38:18;3.38;;;1.60;;
50337;SDS011;46221;51.178;5.900;2023-04-03T07:40:45;5.35;;;1.58;;
50337;SDS011;46221;51.178;5.900;2023-04-03T07:43:14;4.70;;;1.77;;
50337;SDS011;46221;51.178;5.900;2023-04-03T07:45:40;4.55;;;1.67;;
50337;SDS011;46221;51.178;5.900;2023-04-03T07:48:07;4.55;;;2.47;;
50337;SDS011;46221;51.178;5.900;2023-04-03T07:50:33;3.67;;;1.30;;
50337;SDS011;46221;51.178;5.900;2023-04-03T07:52:59;3.65;;;1.52;;
50337;SDS011;46221;51.178;5.900;2023-04-03T07:55:26;4.90;;;1.85;;
50337;SDS011;46221;51.178;5.900;2023-04-03T07:57:53;3.85;;;1.58;;
50337;SDS011;46221;51.178;5.900;2023-04-03T08:00:19;4.15;;;1.65;;
50337;SDS011;46221;51.178;5.900;2023-04-03T08:02:46;4.22;;;1.42;;
50337;SDS011;46221;51.178;5.900;2023-04-03T08:05:18;4.60;;;1.50;;
50337;SDS011;46221;51.178;5.900;2023-04-03T08:07:44;5.05;;;1.92;;
50337;SDS011;46221;51.178;5.900;2023-04-03T08:10:12;4.88;;;1.40;;
50337;SDS011;46221;51.178;5.900;2023-04-03T08:12:39;3.00;;;1.55;;
50337;SDS011;46221;51.178;5.900;2023-04-03T08:15:06;4.90;;;1.55;;
50337;SDS011;46221;51.178;5.900;2023-04-03T08:17:33;4.38;;;1.58;;
50337;SDS011;46221;51.178;5.900;2023-04-03T08:20:01;4.65;;;1.45;;
50337;SDS011;46221;51.178;5.900;2023-04-03T08:22:27;2.65;;;1.23;;
50337;SDS011;46221;51.178;5.900;2023-04-03T08:24:54;3.35;;;1.00;;
50337;SDS011;46221;51.178;5.900;2023-04-03T08:27:25;3.03;;;1.30;;
50337;SDS011;46221;51.178;5.900;2023-04-03T08:29:53;5.20;;;1.63;;
50337;SDS011;46221;51.178;5.900;2023-04-03T08:32:20;4.78;;;1.58;;
50337;SDS011;46221;51.178;5.900;2023-04-03T08:34:46;4.38;;;1.63;;
50337;SDS011;46221;51.178;5.900;2023-04-03T08:37:12;4.68;;;1.30;;
50337;SDS011;46221;51.178;5.900;2023-04-03T08:39:39;3.42;;;1.27;;
50337;SDS011;46221;51.178;5.900;2023-04-03T08:42:11;4.40;;;1.40;;
50337;SDS011;46221;51.178;5.900;2023-04-03T08:44:46;4.47;;;1.55;;
50337;SDS011;46221;51.178;5.900;2023-04-03T08:52:10;3.30;;;1.50;;
50337;SDS011;46221;51.178;5.900;2023-04-03T08:54:40;3.40;;;1.40;;
50337;SDS011;46221;51.178;5.900;2023-04-03T08:57:09;3.40;;;1.63;;
50337;SDS011;46221;51.178;5.900;2023-04-03T08:59:36;3.38;;;1.30;;
50337;SDS011;46221;51.178;5.900;2023-04-03T09:02:21;3.13;;;1.30;;
50337;SDS011;46221;51.178;5.900;2023-04-03T09:04:49;4.00;;;1.60;;
50337;SDS011;46221;51.178;5.900;2023-04-03T09:07:18;3.85;;;1.30;;
50337;SDS011;46221;51.178;5.900;2023-04-03T09:09:48;2.72;;;1.10;;
50337;SDS011;46221;51.178;5.900;2023-04-03T09:12:24;4.13;;;1.50;;
50337;SDS011;46221;51.178;5.900;2023-04-03T09:14:57;4.20;;;1.47;;
50337;SDS011;46221;51.178;5.900;2023-04-03T09:17:50;2.17;;;0.80;;
50337;SDS011;46221;51.178;5.900;2023-04-03T09:22:50;2.70;;;1.20;;
50337;SDS011;46221;51.178;5.900;2023-04-03T09:25:23;2.60;;;0.98;;
50337;SDS011;46221;51.178;5.900;2023-04-03T09:27:49;3.55;;;1.23;;
50337;SDS011;46221;51.178;5.900;2023-04-03T09:30:18;2.53;;;1.00;;
50337;SDS011;46221;51.178;5.900;2023-04-03T09:32:45;2.85;;;1.10;;
50337;SDS011;46221;51.178;5.900;2023-04-03T09:35:23;2.67;;;0.98;;
50337;SDS011;46221;51.178;5.900;2023-04-03T09:40:38;2.92;;;1.10;;
50337;SDS011;46221;51.178;5.900;2023-04-03T09:45:51;3.17;;;1.40;;
50337;SDS011;46221;51.178;5.900;2023-04-03T09:48:19;2.70;;;1.30;;
50337;SDS011;46221;51.178;5.900;2023-04-03T09:50:58;3.22;;;1.20;;
50337;SDS011;46221;51.178;5.900;2023-04-03T09:53:27;2.85;;;1.13;;
50337;SDS011;46221;51.178;5.900;2023-04-03T09:55:53;2.35;;;0.88;;
50337;SDS011;46221;51.178;5.900;2023-04-03T09:58:38;2.45;;;1.42;;
50337;SDS011;46221;51.178;5.900;2023-04-03T10:01:29;2.25;;;1.17;;
50337;SDS011;46221;51.178;5.900;2023-04-03T10:06:36;4.85;;;1.23;;
50337;SDS011;46221;51.178;5.900;2023-04-03T10:09:14;2.80;;;1.00;;
50337;SDS011;46221;51.178;5.900;2023-04-03T10:14:34;2.05;;;0.85;;
50337;SDS011;46221;51.178;5.900;2023-04-03T10:18:02;3.17;;;1.02;;
50337;SDS011;46221;51.178;5.900;2023-04-03T10:19:59;3.13;;;1.08;;
50337;SDS011;46221;51.178;5.900;2023-04-03T10:30:36;3.70;;;1.25;;
50337;SDS011;46221;51.178;5.900;2023-04-03T10:33:18;1.80;;;1.08;;
50337;SDS011;46221;51.178;5.900;2023-04-03T10:41:31;3.08;;;1.00;;
50337;SDS011;46221;51.178;5.900;2023-04-03T10:44:14;2.00;;;0.82;;
50337;SDS011;46221;51.178;5.900;2023-04-03T10:46:52;3.83;;;0.90;;
50337;SDS011;46221;51.178;5.900;2023-04-03T10:50:06;2.13;;;0.80;;
50337;SDS011;46221;51.178;5.900;2023-04-03T10:55:01;2.53;;;0.90;;
50337;SDS011;46221;51.178;5.900;2023-04-03T10:57:28;2.47;;;1.20;;
50337;SDS011;46221;51.178;5.900;2023-04-03T10:59:59;1.77;;;0.90;;
50337;SDS011;46221;51.178;5.900;2023-04-03T11:02:30;2.45;;;0.73;;
50337;SDS011;46221;51.178;5.900;2023-04-03T11:05:02;2.45;;;1.00;;
50337;SDS011;46221;51.178;5.900;2023-04-03T11:07:37;1.95;;;0.73;;
50337;SDS011;46221;51.178;5.900;2023-04-03T11:10:15;0.98;;;0.50;;
50337;SDS011;46221;51.178;5.900;2023-04-03T11:12:49;2.38;;;0.70;;
50337;SDS011;46221;51.178;5.900;2023-04-03T11:15:19;1.35;;;0.63;;
50337;SDS011;46221;51.178;5.900;2023-04-03T11:17:51;2.15;;;1.02;;
50337;SDS011;46221;51.178;5.900;2023-04-03T11:20:25;2.33;;;0.70;;
50337;SDS011;46221;51.178;5.900;2023-04-03T11:22:57;1.90;;;0.70;;
50337;SDS011;46221;51.178;5.900;2023-04-03T11:25:25;3.25;;;1.05;;
50337;SDS011;46221;51.178;5.900;2023-04-03T11:27:55;1.77;;;0.70;;
50337;SDS011;46221;51.178;5.900;2023-04-03T11:33:05;2.65;;;0.75;;
50337;SDS011;46221;51.178;5.900;2023-04-03T11:35:34;1.83;;;0.73;;
50337;SDS011;46221;51.178;5.900;2023-04-03T11:38:02;1.75;;;0.50;;
50337;SDS011;46221;51.178;5.900;2023-04-03T11:40:32;1.50;;;0.60;;
50337;SDS011;46221;51.178;5.900;2023-04-03T11:45:36;2.85;;;0.75;;
50337;SDS011;46221;51.178;5.900;2023-04-03T11:48:41;1.77;;;0.70;;
50337;SDS011;46221;51.178;5.900;2023-04-03T11:50:50;2.28;;;0.68;;
50337;SDS011;46221;51.178;5.900;2023-04-03T11:58:29;1.02;;;0.55;;
50337;SDS011;46221;51.178;5.900;2023-04-03T12:03:29;1.55;;;0.75;;
50337;SDS011;46221;51.178;5.900;2023-04-03T12:11:13;1.65;;;0.52;;
50337;SDS011;46221;51.178;5.900;2023-04-03T12:16:22;2.33;;;0.75;;
50337;SDS011;46221;51.178;5.900;2023-04-03T12:21:16;2.10;;;0.80;;
50337;SDS011;46221;51.178;5.900;2023-04-03T12:26:21;2.13;;;0.90;;
50337;SDS011;46221;51.178;5.900;2023-04-03T12:28:49;2.33;;;0.98;;
50337;SDS011;46221;51.178;5.900;2023-04-03T12:31:19;2.08;;;0.82;;
50337;SDS011;46221;51.178;5.900;2023-04-03T12:34:04;1.83;;;0.60;;
50337;SDS011;46221;51.178;5.900;2023-04-03T12:36:38;1.58;;;0.70;;
50337;SDS011;46221;51.178;5.900;2023-04-03T12:42:02;1.55;;;0.60;;
50337;SDS011;46221;51.178;5.900;2023-04-03T12:44:35;0.98;;;0.50;;
50337;SDS011;46221;51.178;5.900;2023-04-03T12:47:08;0.90;;;0.60;;
50337;SDS011;46221;51.178;5.900;2023-04-03T12:49:41;1.35;;;0.60;;
50337;SDS011;46221;51.178;5.900;2023-04-03T12:54:53;2.38;;;0.75;;
50337;SDS011;46221;51.178;5.900;2023-04-03T12:57:22;1.85;;;0.85;;
50337;SDS011;46221;51.178;5.900;2023-04-03T12:59:49;1.45;;;0.70;;
50337;SDS011;46221;51.178;5.900;2023-04-03T13:02:27;1.50;;;0.75;;
50337;SDS011;46221;51.178;5.900;2023-04-03T13:04:57;3.85;;;0.80;;
50337;SDS011;46221;51.178;5.900;2023-04-03T13:09:55;3.85;;;0.93;;
50337;SDS011;46221;51.178;5.900;2023-04-03T13:12:22;3.20;;;1.20;;
50337;SDS011;46221;51.178;5.900;2023-04-03T13:14:55;3.72;;;1.10;;
50337;SDS011;46221;51.178;5.900;2023-04-03T13:17:22;3.80;;;1.33;;
50337;SDS011;46221;51.178;5.900;2023-04-03T13:19:48;1.92;;;0.70;;
50337;SDS011;46221;51.178;5.900;2023-04-03T13:22:33;2.67;;;0.95;;
50337;SDS011;46221;51.178;5.900;2023-04-03T13:25:06;3.03;;;1.13;;
50337;SDS011;46221;51.178;5.900;2023-04-03T13:27:36;2.58;;;0.90;;
50337;SDS011;46221;51.178;5.900;2023-04-03T13:30:05;3.90;;;1.02;;
50337;SDS011;46221;51.178;5.900;2023-04-03T13:32:32;2.63;;;0.80;;
50337;SDS011;46221;51.178;5.900;2023-04-03T13:34:59;4.40;;;1.40;;
50337;SDS011;46221;51.178;5.900;2023-04-03T13:37:52;4.22;;;1.08;;
50337;SDS011;46221;51.178;5.900;2023-04-03T13:42:45;3.17;;;0.70;;
50337;SDS011;46221;51.178;5.900;2023-04-03T13:47:43;2.80;;;0.98;;
50337;SDS011;46221;51.178;5.900;2023-04-03T13:50:24;2.67;;;1.20;;
50337;SDS011;46221;51.178;5.900;2023-04-03T13:52:59;2.63;;;0.90;;
50337;SDS011;46221;51.178;5.900;2023-04-03T13:55:28;2.00;;;0.80;;
50337;SDS011;46221;51.178;5.900;2023-04-03T13:57:59;3.08;;;0.90;;
50337;SDS011;46221;51.178;5.900;2023-04-03T14:02:58;2.60;;;0.88;;
50337;SDS011;46221;51.178;5.900;2023-04-03T14:05:24;2.10;;;0.77;;
50337;SDS011;46221;51.178;5.900;2023-04-03T14:07:52;5.07;;;1.25;;
50337;SDS011;46221;51.178;5.900;2023-04-03T14:10:19;2.65;;;0.90;;
50337;SDS011;46221;51.178;5.900;2023-04-03T14:12:46;4.32;;;1.02;;
50337;SDS011;46221;51.178;5.900;2023-04-03T14:15:18;2.50;;;0.90;;
50337;SDS011;46221;51.178;5.900;2023-04-03T14:17:45;2.35;;;0.85;;
50337;SDS011;46221;51.178;5.900;2023-04-03T14:20:17;3.25;;;0.80;;
50337;SDS011;46221;51.178;5.900;2023-04-03T14:22:44;2.80;;;0.93;;
50337;SDS011;46221;51.178;5.900;2023-04-03T14:25:10;1.90;;;0.60;;
50337;SDS011;46221;51.178;5.900;2023-04-03T14:27:38;1.95;;;0.98;;
50337;SDS011;46221;51.178;5.900;2023-04-03T14:30:07;2.42;;;1.08;;
50337;SDS011;46221;51.178;5.900;2023-04-03T14:32:33;2.83;;;0.80;;
50337;SDS011;46221;51.178;5.900;2023-04-03T14:35:00;3.38;;;0.70;;
50337;SDS011;46221;51.178;5.900;2023-04-03T14:37:28;1.88;;;0.80;;
50337;SDS011;46221;51.178;5.900;2023-04-03T14:39:55;3.65;;;0.90;;
50337;SDS011;46221;51.178;5.900;2023-04-03T14:42:24;1.90;;;0.80;;
50337;SDS011;46221;51.178;5.900;2023-04-03T14:44:51;3.38;;;0.90;;
50337;SDS011;46221;51.178;5.900;2023-04-03T14:47:19;5.90;;;1.10;;
50337;SDS011;46221;51.178;5.900;2023-04-03T14:49:57;3.97;;;1.02;;
50337;SDS011;46221;51.178;5.900;2023-04-03T14:52:25;3.65;;;1.00;;
50337;SDS011;46221;51.178;5.900;2023-04-03T14:54:52;2.85;;;1.08;;
50337;SDS011;46221;51.178;5.900;2023-04-03T14:57:19;3.35;;;1.13;;
50337;SDS011;46221;51.178;5.900;2023-04-03T14:59:47;5.68;;;1.27;;
50337;SDS011;46221;51.178;5.900;2023-04-03T15:02:33;5.88;;;1.15;;
50337;SDS011;46221;51.178;5.900;2023-04-03T15:05:01;5.22;;;1.17;;
50337;SDS011;46221;51.178;5.900;2023-04-03T15:07:30;5.40;;;1.00;;
50337;SDS011;46221;51.178;5.900;2023-04-03T15:10:00;4.65;;;1.15;;
50337;SDS011;46221;51.178;5.900;2023-04-03T15:12:27;4.55;;;1.42;;
50337;SDS011;46221;51.178;5.900;2023-04-03T15:14:53;3.25;;;0.88;;
50337;SDS011;46221;51.178;5.900;2023-04-03T15:17:28;4.30;;;0.75;;
50337;SDS011;46221;51.178;5.900;2023-04-03T15:19:54;3.42;;;1.30;;
50337;SDS011;46221;51.178;5.900;2023-04-03T15:22:20;3.95;;;1.25;;
50337;SDS011;46221;51.178;5.900;2023-04-03T15:24:47;4.95;;;1.33;;
50337;SDS011;46221;51.178;5.900;2023-04-03T15:27:13;4.68;;;1.23;;
50337;SDS011;46221;51.178;5.900;2023-04-03T15:29:41;5.88;;;1.17;;
50337;SDS011;46221;51.178;5.900;2023-04-03T15:32:08;5.25;;;1.17;;
50337;SDS011;46221;51.178;5.900;2023-04-03T15:34:35;2.63;;;1.00;;
50337;SDS011;46221;51.178;5.900;2023-04-03T15:37:02;3.75;;;1.00;;
50337;SDS011;46221;51.178;5.900;2023-04-03T15:39:28;4.57;;;1.38;;
50337;SDS011;46221;51.178;5.900;2023-04-03T15:41:55;3.60;;;1.10;;
50337;SDS011;46221;51.178;5.900;2023-04-03T15:44:21;6.25;;;1.55;;
50337;SDS011;46221;51.178;5.900;2023-04-03T15:46:48;4.63;;;1.00;;
50337;SDS011;46221;51.178;5.900;2023-04-03T15:49:18;4.72;;;1.10;;
50337;SDS011;46221;51.178;5.900;2023-04-03T15:51:45;5.68;;;1.13;;
50337;SDS011;46221;51.178;5.900;2023-04-03T15:54:11;4.05;;;1.20;;
50337;SDS011;46221;51.178;5.900;2023-04-03T15:56:37;4.13;;;1.00;;
50337;SDS011;46221;51.178;5.900;2023-04-03T15:59:04;3.85;;;1.08;;
50337;SDS011;46221;51.178;5.900;2023-04-03T16:01:30;3.97;;;1.20;;
50337;SDS011;46221;51.178;5.900;2023-04-03T16:03:57;5.95;;;1.35;;
50337;SDS011;46221;51.178;5.900;2023-04-03T16:06:23;4.85;;;1.05;;
50337;SDS011;46221;51.178;5.900;2023-04-03T16:08:50;6.10;;;1.30;;
50337;SDS011;46221;51.178;5.900;2023-04-03T16:11:17;3.33;;;1.05;;
50337;SDS011;46221;51.178;5.900;2023-04-03T16:13:43;4.30;;;1.58;;
50337;SDS011;46221;51.178;5.900;2023-04-03T16:16:09;2.28;;;0.70;;
50337;SDS011;46221;51.178;5.900;2023-04-03T16:18:36;4.65;;;1.25;;
50337;SDS011;46221;51.178;5.900;2023-04-03T16:21:02;3.72;;;1.08;;